MYR weather

Myrtle Beach International Airport
Myrtle Beach, South Carolina, United States

Public forecast

Using degrees Fahrenheit for public forecast. Weather courtesy of forecast.io.

Current aviation weather report (METAR) for Myrtle Beach International Airport

Retrieved 2019/12/13 03:56 UTC (51 minutes ago):

KMYR 130356Z AUTO 02006KT 10SM BKN028 BKN032 07/01 A3041 RMK AO2 SLP299 T00670011

Aviation forecast (TAF) for Myrtle Beach International Airport

Retrieved 2019-12-13 00:03 UTC (5 hours ago):

TAF COR KMYR 130000Z 1300/1324 04010KT P6SM SCT025 TEMPO 1300/1304 BKN025 FM130400 03011KT P6SM OVC015 FM130800 03007KT P6SM OVC008 FM131300 03009KT 5SM -RA OVC005 FM131800 04007KT 3SM RA OVC004